Devils Lake, North Dakota
Current Conditions -  °F | °C
As of 8:55 PM on Sunday 21 Dec 2014 (Local Time) from KDVL Reporting Station
Overcast Overcast  
Wind Chill: 20°   Ceiling: 200
Heat Index: 30°   Visibility: 1.7mi
Dew Point: 25°   Wind: 13mph
Humidity: 80%   Direction: 150°SSE
Pressure: 29.49"   Gusts: NA
Location:  48.11°N, 98.86°W
Report Text: KDVL 220255Z AUTO 15011KT 1 3/4SM OVC002 M01/M04 A2949 RMK AO1 54000
Loading
Personal Weather Stations






























Interactive Weather Map New forecast layout! Learn more

10-Day Weather Forecast

Advertisements
Track Severe Weather on mobile